Time;durP1;ratioP1;P1;durP2;ratioP2;P2;SDS_P1;SDS_P2;PMS_P1;PMS_P2;Temp;Humidity;BMP_temperature;BMP_pressure;BME280_temperature;BME280_humidity;BME280_pressure;Samples;Min_cycle;Max_cycle;Signal;HPM_P1;HPM_P2
2023/06/22 00:00:21;;;;;;;;;;;;;;;22.72;68.21;101415.72;4136671;28;20361;-66
2023/06/22 00:02:25;;;;;;;;;;;;;;;22.71;68.26;101422.31;4139081;28;20048;-66
2023/06/22 00:04:27;;;;;;;;;;;;;;;22.68;68.32;101418.13;4138559;28;20024;-66
2023/06/22 00:06:29;;;;;;;;;;;;;;;22.67;68.32;101421.97;4138833;28;20024;-66
2023/06/22 00:08:31;;;;;;;;;;;;;;;22.67;68.79;101424.72;4138235;28;20439;-66
2023/06/22 00:10:35;;;;;;;;;;;;;;;22.66;68.80;101420.28;4137851;28;20447;-66
2023/06/22 00:12:37;;;;;;;;;;;;;;;22.65;68.65;101422.19;4134290;28;20024;-66
2023/06/22 00:14:39;;;;;;;;;;;;;;;22.62;68.70;101421.84;4138221;28;20016;-66
2023/06/22 00:16:42;;;;;;;;;;;;;;;22.61;68.91;101423.75;4138515;28;20020;-66
2023/06/22 00:18:46;;;;;;;;;;;;;;;22.61;68.87;101425.66;4139056;28;20037;-66
2023/06/22 00:20:48;;;;;;;;;;;;;;;22.58;68.70;101432.50;4138238;28;20016;-66
2023/06/22 00:22:51;;;;;;;;;;;;;;;22.54;68.58;101423.06;4138582;28;20459;-66
2023/06/22 00:24:53;;;;;;;;;;;;;;;22.53;68.70;101434.31;4136578;28;20025;-66
2023/06/22 00:26:56;;;;;;;;;;;;;;;22.53;69.02;101437.06;4138459;28;20021;-66
2023/06/22 00:28:58;;;;;;;;;;;;;;;22.49;69.20;101443.03;4136246;28;20428;-66
2023/06/22 00:31:00;;;;;;;;;;;;;;;22.45;69.36;101447.34;4138229;28;20024;-65
2023/06/22 00:33:02;;;;;;;;;;;;;;;22.43;69.86;101456.91;4137261;28;20020;-65
2023/06/22 00:35:04;;;;;;;;;;;;;;;22.40;69.93;101458.22;4138128;28;20024;-68
2023/06/22 00:37:06;;;;;;;;;;;;;;;22.36;69.70;101451.53;4138811;28;20370;-66
2023/06/22 00:39:10;;;;;;;;;;;;;;;22.34;69.59;101453.69;4134703;28;20040;-66
2023/06/22 00:41:12;;;;;;;;;;;;;;;22.31;69.50;101454.16;4137730;28;20034;-66
2023/06/22 00:43:16;;;;;;;;;;;;;;;22.29;69.35;101453.53;4120704;28;20017;-66
2023/06/22 00:45:18;;;;;;;;;;;;;;;22.24;69.51;101447.88;4136378;28;19960;-66
2023/06/22 00:47:20;;;;;;;;;;;;;;;22.28;69.67;101449.94;4136431;28;20024;-66
2023/06/22 00:49:22;;;;;;;;;;;;;;;22.24;69.76;101450.63;4137631;28;20028;-66
2023/06/22 00:51:25;;;;;;;;;;;;;;;22.21;69.75;101451.97;4136971;28;20016;-65
2023/06/22 00:53:27;;;;;;;;;;;;;;;22.20;70.00;101450.28;4136118;28;20408;-66
2023/06/22 00:55:30;;;;;;;;;;;;;;;22.18;70.29;101446.94;4137191;28;20064;-65
2023/06/22 00:57:32;;;;;;;;;;;;;;;22.18;70.56;101455.19;4136765;28;19972;-66
2023/06/22 00:59:35;;;;;;;;;;;;;;;22.18;70.70;101465.34;4130800;28;19965;-66
2023/06/22 01:01:41;;;;;;;;;;;;;;;22.16;70.71;101446.31;4138565;28;20013;-66
2023/06/22 01:03:43;;;;;;;;;;;;;;;22.17;70.56;101461.75;4141081;28;20024;-66
2023/06/22 01:05:46;;;;;;;;;;;;;;;22.17;70.14;101469.19;4142549;28;20444;-66
2023/06/22 01:07:55;;;;;;;;;;;;;;;22.15;70.13;101469.44;4138424;28;20025;-65
2023/06/22 01:09:58;;;;;;;;;;;;;;;22.13;70.38;101468.81;4143075;28;20025;-66
2023/06/22 01:12:01;;;;;;;;;;;;;;;22.14;70.24;101470.50;4124666;28;20025;-65
2023/06/22 01:14:05;;;;;;;;;;;;;;;22.15;70.52;101469.44;4142483;28;20379;-66
2023/06/22 01:16:08;;;;;;;;;;;;;;;22.15;70.24;101469.44;4141554;28;20386;-66
2023/06/22 01:18:10;;;;;;;;;;;;;;;22.15;70.13;101472.19;4143409;28;20020;-66
2023/06/22 01:20:12;;;;;;;;;;;;;;;22.15;70.13;101469.44;4125808;28;20013;-66
2023/06/22 01:22:16;;;;;;;;;;;;;;;22.15;70.03;101469.44;4141139;28;20049;-65
2023/06/22 01:24:19;;;;;;;;;;;;;;;22.17;70.24;101461.75;4143762;28;20021;-66
2023/06/22 01:26:23;;;;;;;;;;;;;;;22.19;69.86;101470.59;4138135;28;20024;-65
2023/06/22 01:28:33;;;;;;;;;;;;;;;22.21;69.67;101465.72;4143652;28;20025;-65
2023/06/22 01:30:35;;;;;;;;;;;;;;;22.22;69.74;101461.06;4139722;28;20084;-66
2023/06/22 01:32:40;;;;;;;;;;;;;;;22.26;69.72;101465.00;4141176;28;20020;-66
2023/06/22 01:34:42;;;;;;;;;;;;;;;22.29;69.65;101461.78;4142056;28;20028;-66
2023/06/22 01:36:44;;;;;;;;;;;;;;;22.30;69.12;101467.09;4143452;28;20020;-66
2023/06/22 01:38:47;;;;;;;;;;;;;;;22.33;69.43;101470.44;4142121;28;20017;-66
2023/06/22 01:40:49;;;;;;;;;;;;;;;22.37;69.04;101469.72;4143111;28;20028;-65
2023/06/22 01:42:52;;;;;;;;;;;;;;;22.41;68.99;101470.06;4141595;28;20012;-66
2023/06/22 01:44:56;;;;;;;;;;;;;;;22.42;68.79;101478.09;4142951;28;20019;-66
2023/06/22 01:46:58;;;;;;;;;;;;;;;22.42;68.72;101483.59;4141408;28;20045;-65
2023/06/22 01:49:01;;;;;;;;;;;;;;;22.40;68.73;101482.16;4142544;28;20020;-66
2023/06/22 01:51:05;;;;;;;;;;;;;;;22.38;68.91;101481.56;4142309;28;20317;-66
2023/06/22 01:53:08;;;;;;;;;;;;;;;22.38;68.77;101478.81;4142513;28;20041;-66
2023/06/22 01:55:10;;;;;;;;;;;;;;;22.36;69.01;101481.78;4143159;28;20016;-66
2023/06/22 01:57:12;;;;;;;;;;;;;;;22.35;69.12;101490.28;4143416;28;20098;-65
2023/06/22 01:59:15;;;;;;;;;;;;;;;22.34;69.17;101485.88;4138389;28;19982;-66
2023/06/22 02:01:20;;;;;;;;;;;;;;;22.36;69.19;101484.53;4133456;28;19961;-66
2023/06/22 02:03:23;;;;;;;;;;;;;;;22.39;69.24;101486.00;4143086;28;20364;-65
2023/06/22 02:05:28;;;;;;;;;;;;;;;22.41;68.84;101478.31;4142530;28;20056;-66
2023/06/22 02:07:33;;;;;;;;;;;;;;;22.41;68.91;101481.91;4138897;28;20020;-65
2023/06/22 02:09:37;;;;;;;;;;;;;;;22.41;68.96;101479.16;4133062;28;20472;-66
2023/06/22 02:11:40;;;;;;;;;;;;;;;22.44;68.64;101484.19;4143236;28;20012;-66
2023/06/22 02:13:43;;;;;;;;;;;;;;;22.45;68.53;101485.03;4138937;28;20349;-66
2023/06/22 02:15:45;;;;;;;;;;;;;;;22.46;68.58;101487.56;4139122;28;20016;-65
2023/06/22 02:17:49;;;;;;;;;;;;;;;22.45;68.61;101493.28;4123425;28;19950;-65
2023/06/22 02:19:51;;;;;;;;;;;;;;;22.43;68.71;101490.78;4133344;28;20012;-66
2023/06/22 02:21:53;;;;;;;;;;;;;;;22.41;68.68;101492.91;4136871;28;20016;-66
2023/06/22 02:23:56;;;;;;;;;;;;;;;22.37;68.77;101502.75;4140311;28;20353;-66
2023/06/22 02:25:58;;;;;;;;;;;;;;;22.35;68.93;101499.41;4138375;28;20037;-66
2023/06/22 02:28:00;;;;;;;;;;;;;;;22.33;69.14;101503.44;4134945;28;20025;-66
2023/06/22 02:30:02;;;;;;;;;;;;;;;22.28;69.36;101509.63;4121273;28;20024;-65
2023/06/22 02:32:04;;;;;;;;;;;;;;;22.24;69.60;101508.41;4138905;28;20024;-66
2023/06/22 02:34:08;;;;;;;;;;;;;;;22.21;69.88;101503.38;4138272;28;20024;-66
2023/06/22 02:36:12;;;;;;;;;;;;;;;22.19;69.99;101508.28;4134162;28;20020;-65
2023/06/22 02:38:15;;;;;;;;;;;;;;;22.14;70.63;101501.56;4140245;28;20016;-66
2023/06/22 02:40:17;;;;;;;;;;;;;;;22.14;70.48;101503.50;4139128;28;20016;-66
2023/06/22 02:42:20;;;;;;;;;;;;;;;22.13;70.50;101505.44;4133387;28;20021;-65
2023/06/22 02:44:22;;;;;;;;;;;;;;;22.16;70.76;101508.75;4137730;28;20041;-66
2023/06/22 02:46:24;;;;;;;;;;;;;;;22.16;70.57;101509.59;4119518;28;20029;-66
2023/06/22 02:48:27;;;;;;;;;;;;;;;22.12;70.88;101502.91;4138649;28;20924;-65
2023/06/22 02:50:31;;;;;;;;;;;;;;;22.10;71.05;101500.41;4139346;28;20336;-66
2023/06/22 02:52:34;;;;;;;;;;;;;;;22.09;70.98;101504.22;4133826;28;20461;-66
2023/06/22 02:54:37;;;;;;;;;;;;;;;22.09;71.43;101497.88;4122284;28;20514;-66
2023/06/22 02:56:43;;;;;;;;;;;;;;;22.10;71.39;101510.53;4138280;28;20028;-67
2023/06/22 02:58:45;;;;;;;;;;;;;;;22.14;71.26;101503.50;4139662;28;20013;-66
2023/06/22 03:00:48;;;;;;;;;;;;;;;22.16;71.06;101503.25;4137467;28;20060;-66
2023/06/22 03:02:50;;;;;;;;;;;;;;;22.14;71.17;101509.84;4139909;28;20024;-66
2023/06/22 03:04:53;;;;;;;;;;;;;;;22.14;71.16;101504.31;4121768;28;20041;-66
2023/06/22 03:07:01;;;;;;;;;;;;;;;22.16;71.29;101506.84;4139525;28;20037;-66
2023/06/22 03:09:04;;;;;;;;;;;;;;;22.20;71.31;101499.81;4137369;28;20025;-65
2023/06/22 03:11:08;;;;;;;;;;;;;;;22.22;71.48;101499.56;4137044;28;20483;-66
2023/06/22 03:13:10;;;;;;;;;;;;;;;22.22;71.52;101496.81;4138417;28;20052;-66
2023/06/22 03:15:13;;;;;;;;;;;;;;;22.20;71.30;101498.97;4116645;28;20020;-66
2023/06/22 03:17:15;;;;;;;;;;;;;;;22.20;71.56;101505.31;4139877;28;20564;-66
2023/06/22 03:19:21;;;;;;;;;;;;;;;22.20;71.27;101504.47;4139368;28;20475;-67
2023/06/22 03:21:23;;;;;;;;;;;;;;;22.21;71.66;101504.25;4138072;28;20441;-66
2023/06/22 03:23:29;;;;;;;;;;;;;;;22.21;71.78;101498.75;4121971;28;20028;-66
2023/06/22 03:25:31;;;;;;;;;;;;;;;22.20;71.66;101499.81;4137825;28;20890;-65
2023/06/22 03:27:33;;;;;;;;;;;;;;;22.20;71.82;101501.72;4136665;28;20021;-65
2023/06/22 03:29:35;;;;;;;;;;;;;;;22.20;71.86;101498.97;4137270;28;20028;-65
2023/06/22 03:31:37;;;;;;;;;;;;;;;22.17;71.98;101500.28;4137822;28;20447;-65
2023/06/22 03:33:41;;;;;;;;;;;;;;;22.14;72.28;101496.06;4136824;28;20020;-65
2023/06/22 03:35:43;;;;;;;;;;;;;;;22.12;72.36;101495.47;4138965;28;20459;-65
2023/06/22 03:37:47;;;;;;;;;;;;;;;22.10;72.49;101494.03;4137917;28;20024;-65
2023/06/22 03:39:50;;;;;;;;;;;;;;;22.10;72.54;101503.16;4135992;28;20028;-65
2023/06/22 03:41:53;;;;;;;;;;;;;;;22.11;72.51;101509.47;4121430;28;20391;-66
2023/06/22 03:43:55;;;;;;;;;;;;;;;22.10;72.64;101505.03;4138407;28;20009;-65
2023/06/22 03:45:57;;;;;;;;;;;;;;;22.09;72.61;101506.97;4139118;28;20020;-65
2023/06/22 03:47:59;;;;;;;;;;;;;;;22.08;72.59;101505.28;4137202;28;20028;-65
2023/06/22 03:50:03;;;;;;;;;;;;;;;22.05;72.90;101508.53;4136778;28;20022;-65
2023/06/22 03:52:06;;;;;;;;;;;;;;;22.05;72.79;101502.16;4139324;28;20115;-65
2023/06/22 03:54:08;;;;;;;;;;;;;;;22.07;73.03;101508.25;4139509;28;22752;-66
2023/06/22 03:56:19;;;;;;;;;;;;;;;22.07;73.21;101506.38;4141026;28;20439;-65
2023/06/22 03:58:22;;;;;;;;;;;;;;;22.07;72.97;101505.50;4139472;28;20443;-65
2023/06/22 04:00:24;;;;;;;;;;;;;;;22.08;73.02;101512.69;4138283;28;20586;-65
2023/06/22 04:02:26;;;;;;;;;;;;;;;22.08;73.15;101512.69;4138806;28;20018;-65
2023/06/22 04:04:28;;;;;;;;;;;;;;;22.09;73.06;101509.72;4138552;28;20012;-65
2023/06/22 04:06:30;;;;;;;;;;;;;;;22.09;73.04;101514.38;4139032;28;20008;-65
2023/06/22 04:08:32;;;;;;;;;;;;;;;22.06;73.11;101514.84;4138700;28;20643;-65
2023/06/22 04:10:34;;;;;;;;;;;;;;;22.04;73.08;101517.00;4136914;28;20064;-65
2023/06/22 04:12:38;;;;;;;;;;;;;;;22.03;73.19;101515.31;4138224;28;20027;-65
2023/06/22 04:14:40;;;;;;;;;;;;;;;22.02;73.21;101519.13;4137732;28;20016;-65
2023/06/22 04:16:42;;;;;;;;;;;;;;;22.04;73.19;101515.09;4139102;28;20032;-65
2023/06/22 04:18:44;;;;;;;;;;;;;;;22.07;73.12;101514.63;4137527;28;20029;-65
2023/06/22 04:20:47;;;;;;;;;;;;;;;22.07;73.12;101517.38;4136829;28;20004;-65
2023/06/22 04:22:49;;;;;;;;;;;;;;;22.09;73.13;101519.88;4138017;28;20008;-65
2023/06/22 04:24:52;;;;;;;;;;;;;;;22.09;73.21;101523.47;4136920;28;20024;-65
2023/06/22 04:26:56;;;;;;;;;;;;;;;22.11;73.09;101520.47;4138998;28;20017;-66
2023/06/22 04:28:59;;;;;;;;;;;;;;;22.12;72.95;101522.16;4138019;28;20012;-65
2023/06/22 04:31:02;;;;;;;;;;;;;;;22.09;73.05;101525.38;4137570;28;20374;-64
2023/06/22 04:33:04;;;;;;;;;;;;;;;22.07;73.29;101524.75;4138469;28;20045;-65
2023/06/22 04:35:07;;;;;;;;;;;;;;;22.07;73.04;101528.38;4137060;28;20004;-65
2023/06/22 04:37:09;;;;;;;;;;;;;;;22.08;73.02;101531.94;4138479;28;20366;-65
2023/06/22 04:39:11;;;;;;;;;;;;;;;22.09;72.91;101536.38;4137386;28;20061;-64
2023/06/22 04:41:23;;;;;;;;;;;;;;;22.12;72.80;101541.41;4136335;28;20040;-64
2023/06/22 04:43:25;;;;;;;;;;;;;;;22.16;72.77;101536.28;4136869;28;20056;-64
2023/06/22 04:45:28;;;;;;;;;;;;;;;22.16;72.80;101550.84;4137465;28;20008;-64
2023/06/22 04:47:31;;;;;;;;;;;;;;;22.18;72.84;101550.63;4137809;28;20004;-64
2023/06/22 04:49:37;;;;;;;;;;;;;;;22.17;72.60;101551.72;4137503;28;20016;-64
2023/06/22 04:51:40;;;;;;;;;;;;;;;22.17;72.51;101541.53;4138056;28;20431;-64
2023/06/22 04:53:42;;;;;;;;;;;;;;;22.19;72.29;101541.31;4137971;28;20029;-65
2023/06/22 04:55:45;;;;;;;;;;;;;;;22.20;72.04;101534.75;4133879;28;20016;-65
2023/06/22 04:57:48;;;;;;;;;;;;;;;22.22;72.18;101538.91;4137796;28;20031;-65
2023/06/22 04:59:50;;;;;;;;;;;;;;;22.26;71.78;101536.56;4135866;28;20024;-65
2023/06/22 05:01:54;;;;;;;;;;;;;;;22.26;71.93;101542.88;4137565;28;20020;-64
2023/06/22 05:03:56;;;;;;;;;;;;;;;22.28;71.50;101540.72;4136870;28;20024;-64
2023/06/22 05:05:58;;;;;;;;;;;;;;;22.32;71.57;101546.66;4138335;28;20053;-64
2023/06/22 05:08:01;;;;;;;;;;;;;;;22.33;70.49;101536.47;4120164;28;20519;-64
2023/06/22 05:10:04;;;;;;;;;;;;;;;22.34;70.09;101547.25;4137694;28;20012;-64
2023/06/22 05:12:07;;;;;;;;;;;;;;;22.35;69.90;101537.94;4137927;28;20020;-64
2023/06/22 05:14:09;;;;;;;;;;;;;;;22.40;70.05;101540.78;4135940;28;20023;-64
2023/06/22 05:16:11;;;;;;;;;;;;;;;22.43;69.75;101539.47;4135927;28;20016;-64
2023/06/22 05:18:15;;;;;;;;;;;;;;;22.43;69.06;101537.56;4134941;28;19953;-64
2023/06/22 05:20:17;;;;;;;;;;;;;;;22.46;69.03;101533.50;4135838;28;20032;-64
2023/06/22 05:22:19;;;;;;;;;;;;;;;22.47;68.85;101527.75;4136778;28;20732;-64
2023/06/22 05:24:21;;;;;;;;;;;;;;;22.48;67.17;101536.88;4105223;28;20025;-64
2023/06/22 05:26:23;;;;;;;;;;;;;;;22.49;67.25;101542.13;4137649;28;20044;-64
2023/06/22 05:28:25;;;;;;;;;;;;;;;22.50;66.90;101541.03;4137845;28;20020;-64
2023/06/22 05:30:27;;;;;;;;;;;;;;;22.52;66.77;101546.31;4136213;28;20025;-64
2023/06/22 05:32:29;;;;;;;;;;;;;;;22.53;65.96;101549.91;4135966;28;19926;-65
2023/06/22 05:34:33;;;;;;;;;;;;;;;22.53;66.21;101545.22;4136166;28;20001;-64
2023/06/22 05:36:35;;;;;;;;;;;;;;;22.56;66.17;101542.00;4136669;28;20471;-65
2023/06/22 05:38:37;;;;;;;;;;;;;;;22.57;66.36;101549.19;4137044;28;20416;-64
2023/06/22 05:40:39;;;;;;;;;;;;;;;22.59;66.44;101549.78;4136033;28;20024;-64
2023/06/22 05:42:41;;;;;;;;;;;;;;;22.62;66.71;101546.56;4135629;28;20017;-65
2023/06/22 05:44:44;;;;;;;;;;;;;;;22.65;66.83;101548.84;4134738;28;20338;-64
2023/06/22 05:46:46;;;;;;;;;;;;;;;22.69;66.42;101554.69;4136383;28;20052;-64
2023/06/22 05:48:48;;;;;;;;;;;;;;;22.73;66.05;101557.81;4136150;28;20012;-65
2023/06/22 05:50:51;;;;;;;;;;;;;;;22.76;66.14;101562.84;4139078;28;20017;-64
2023/06/22 05:52:53;;;;;;;;;;;;;;;22.80;66.21;101566.81;4139444;28;20012;-63
2023/06/22 05:54:55;;;;;;;;;;;;;;;22.84;66.14;101568.00;4140636;28;20013;-65
2023/06/22 05:56:57;;;;;;;;;;;;;;;22.87;66.24;101573.03;4140947;28;20024;-65
2023/06/22 05:58:59;;;;;;;;;;;;;;;22.90;65.58;101569.81;4139980;28;20467;-65
2023/06/22 06:01:01;;;;;;;;;;;;;;;22.91;64.83;101574.22;4137623;28;20018;-65
2023/06/22 06:03:04;;;;;;;;;;;;;;;22.90;63.77;101566.19;4122366;28;20017;-65
2023/06/22 06:05:07;;;;;;;;;;;;;;;22.89;63.44;101576.38;4140776;28;20056;-65
2023/06/22 06:07:10;;;;;;;;;;;;;;;22.88;62.89;101577.47;4140539;28;20021;-65
2023/06/22 06:09:12;;;;;;;;;;;;;;;22.88;63.03;101569.19;4140265;28;20029;-65
2023/06/22 06:11:14;;;;;;;;;;;;;;;22.88;63.32;101568.38;4123540;28;20073;-65
2023/06/22 06:13:16;;;;;;;;;;;;;;;22.90;63.08;101563.44;4139613;28;20020;-65
2023/06/22 06:15:19;;;;;;;;;;;;;;;22.91;63.27;101548.59;4138779;28;20040;-64
2023/06/22 06:17:21;;;;;;;;;;;;;;;22.94;63.43;101553.63;4139919;28;20037;-65
2023/06/22 06:19:23;;;;;;;;;;;;;;;22.97;63.74;101558.66;4138532;28;20098;-66
2023/06/22 06:21:25;;;;;;;;;;;;;;;23.01;63.73;101563.47;4140057;28;20025;-65
2023/06/22 06:23:28;;;;;;;;;;;;;;;23.03;64.10;101557.72;4135747;28;20016;-65
2023/06/22 06:25:30;;;;;;;;;;;;;;;23.07;62.91;101553.38;4139296;28;20024;-65
2023/06/22 06:27:32;;;;;;;;;;;;;;;23.09;61.69;101550.41;4140739;28;20013;-65
2023/06/22 06:29:34;;;;;;;;;;;;;;;23.09;61.95;101548.50;4139068;28;20657;-65
2023/06/22 06:31:36;;;;;;;;;;;;;;;23.11;61.85;101557.38;4139598;28;20652;-64
2023/06/22 06:33:38;;;;;;;;;;;;;;;23.13;61.73;101557.94;4136794;28;20017;-65
2023/06/22 06:35:41;;;;;;;;;;;;;;;23.16;61.71;101568.50;4137563;28;20024;-65
2023/06/22 06:37:43;;;;;;;;;;;;;;;23.18;62.25;101565.50;4136766;28;20383;-65
2023/06/22 06:39:47;;;;;;;;;;;;;;;23.21;61.58;101578.78;4137625;28;20057;-66
2023/06/22 06:41:49;;;;;;;;;;;;;;;23.24;61.24;101572.78;4140072;28;20351;-65
2023/06/22 06:43:51;;;;;;;;;;;;;;;23.26;61.26;101567.91;4136643;28;20033;-65
2023/06/22 06:45:53;;;;;;;;;;;;;;;23.29;60.32;101566.56;4139974;28;19981;-65
2023/06/22 06:47:55;;;;;;;;;;;;;;;23.27;59.45;101564.03;4140149;28;20012;-64
2023/06/22 06:49:57;;;;;;;;;;;;;;;23.27;59.26;101561.28;4139362;28;20052;-65
2023/06/22 06:51:59;;;;;;;;;;;;;;;23.28;58.23;101562.16;4137732;28;20012;-65
2023/06/22 06:54:03;;;;;;;;;;;;;;;23.29;58.76;101553.63;4138310;28;19926;-64
2023/06/22 06:56:07;;;;;;;;;;;;;;;23.31;58.67;101556.97;4140413;28;20029;-65
2023/06/22 06:58:09;;;;;;;;;;;;;;;23.31;58.03;101554.22;4140118;28;20364;-65
2023/06/22 07:00:13;;;;;;;;;;;;;;;23.33;58.09;101552.06;4139213;28;20060;-64
2023/06/22 07:02:15;;;;;;;;;;;;;;;23.35;57.80;101554.56;4138789;28;20029;-65
2023/06/22 07:04:17;;;;;;;;;;;;;;;23.37;57.60;101553.25;4136585;28;20336;-65
2023/06/22 07:06:20;;;;;;;;;;;;;;;23.33;57.87;101535.53;4139916;28;20016;-65
2023/06/22 07:08:22;;;;;;;;;;;;;;;23.39;57.08;101548.31;4133787;28;20020;-66
2023/06/22 07:10:24;;;;;;;;;;;;;;;23.42;56.75;101544.25;4139587;28;20368;-66
2023/06/22 07:12:27;;;;;;;;;;;;;;;23.44;57.79;101535.75;4139223;28;20037;-65
2023/06/22 07:14:29;;;;;;;;;;;;;;;23.47;57.60;101527.81;4138548;28;20028;-66
2023/06/22 07:16:31;;;;;;;;;;;;;;;23.50;57.30;101523.75;4139686;28;19940;-65
2023/06/22 07:18:33;;;;;;;;;;;;;;;23.53;57.45;101523.25;4139524;28;20514;-65
2023/06/22 07:20:35;;;;;;;;;;;;;;;23.55;57.98;101512.81;4122070;28;20021;-64
2023/06/22 07:22:37;;;;;;;;;;;;;;;23.58;57.82;101521.41;4139235;28;20036;-64
2023/06/22 07:24:39;;;;;;;;;;;;;;;23.62;57.84;101526.44;4139155;28;20360;-64
2023/06/22 07:26:45;;;;;;;;;;;;;;;23.64;57.60;101522.38;4139215;28;20479;-64
2023/06/22 07:28:50;;;;;;;;;;;;;;;23.66;58.16;101519.38;4139356;28;20020;-65
2023/06/22 07:30:52;;;;;;;;;;;;;;;23.69;58.29;101514.19;4138632;28;20384;-65
2023/06/22 07:32:54;;;;;;;;;;;;;;;23.71;57.84;101517.53;4133583;28;20025;-65
2023/06/22 07:34:56;;;;;;;;;;;;;;;23.74;57.99;101524.47;4138720;28;20061;-65
2023/06/22 07:36:59;;;;;;;;;;;;;;;23.77;58.19;101509.38;4139190;28;20012;-65
2023/06/22 07:39:01;;;;;;;;;;;;;;;23.81;57.60;101513.28;4139009;28;20475;-66
2023/06/22 07:41:05;;;;;;;;;;;;;;;23.82;56.50;101518.56;4139228;28;20025;-65
2023/06/22 07:43:07;;;;;;;;;;;;;;;23.84;56.40;101521.09;4138900;28;20032;-65
2023/06/22 07:45:11;;;;;;;;;;;;;;;23.84;56.62;101519.19;4138438;28;20012;-66
2023/06/22 07:47:13;;;;;;;;;;;;;;;23.85;55.92;101515.34;4138089;28;20024;-65
2023/06/22 07:49:15;;;;;;;;;;;;;;;23.86;56.33;101518.97;4137926;28;20028;-65
2023/06/22 07:51:17;;;;;;;;;;;;;;;23.87;56.45;101513.19;4139134;28;20041;-65
2023/06/22 07:53:19;;;;;;;;;;;;;;;23.88;56.01;101517.59;4137030;28;20052;-65
2023/06/22 07:55:21;;;;;;;;;;;;;;;23.89;56.32;101519.28;4137616;28;20009;-65
2023/06/22 07:57:31;;;;;;;;;;;;;;;23.90;55.65;101520.97;4139161;28;20439;-65
2023/06/22 07:59:33;;;;;;;;;;;;;;;23.91;55.98;101516.28;4128534;28;20444;-64
2023/06/22 08:01:38;;;;;;;;;;;;;;;23.94;56.60;101515.78;4138980;28;20008;-66
2023/06/22 08:03:40;;;;;;;;;;;;;;;23.97;56.93;101517.22;4138319;28;20024;-66
2023/06/22 08:05:42;;;;;;;;;;;;;;;23.98;56.84;101518.88;4138310;28;20023;-66
2023/06/22 08:07:44;;;;;;;;;;;;;;;23.99;55.57;101529.66;4138368;28;20024;-65
2023/06/22 08:09:47;;;;;;;;;;;;;;;24.01;55.20;101526.66;4136573;28;20456;-64
2023/06/22 08:11:49;;;;;;;;;;;;;;;24.01;55.62;101524.75;4133361;28;20016;-65
2023/06/22 08:13:51;;;;;;;;;;;;;;;24.02;55.17;101522.81;4136993;28;20557;-64
2023/06/22 08:15:53;;;;;;;;;;;;;;;24.02;54.82;101523.66;4138470;28;20088;-64
2023/06/22 08:17:57;;;;;;;;;;;;;;;24.03;55.03;101522.59;4138033;28;20028;-64
2023/06/22 08:19:59;;;;;;;;;;;;;;;24.03;54.52;101511.53;4138059;28;20020;-65
2023/06/22 08:22:02;;;;;;;;;;;;;;;24.03;54.71;101522.59;4134565;28;20025;-65
2023/06/22 08:24:06;;;;;;;;;;;;;;;24.04;55.21;101513.19;4137739;28;20024;-65
2023/06/22 08:26:08;;;;;;;;;;;;;;;24.06;55.94;101513.81;4138537;28;20025;-65
2023/06/22 08:28:10;;;;;;;;;;;;;;;24.08;56.27;101508.03;4133721;28;20678;-65
2023/06/22 08:30:12;;;;;;;;;;;;;;;24.09;55.76;101512.44;4137375;28;20023;-66
2023/06/22 08:32:14;;;;;;;;;;;;;;;24.10;56.37;101514.97;4137680;28;20378;-65
2023/06/22 08:34:21;;;;;;;;;;;;;;;24.11;54.78;101513.06;4138028;28;20021;-65
2023/06/22 08:36:23;;;;;;;;;;;;;;;24.11;54.73;101505.59;4138749;28;20016;-65
2023/06/22 08:38:25;;;;;;;;;;;;;;;24.14;54.30;101508.94;4136151;28;20044;-65
2023/06/22 08:40:27;;;;;;;;;;;;;;;24.14;54.72;101507.03;4137459;28;20032;-65
2023/06/22 08:42:29;;;;;;;;;;;;;;;24.15;55.49;101502.34;4137927;28;20024;-65
2023/06/22 08:44:31;;;;;;;;;;;;;;;24.17;55.12;101514.81;4137785;28;20023;-65
2023/06/22 08:46:33;;;;;;;;;;;;;;;24.19;54.58;101509.06;4138708;28;20028;-64
2023/06/22 08:48:35;;;;;;;;;;;;;;;24.19;53.33;101509.06;4138240;28;19976;-65
2023/06/22 08:50:40;;;;;;;;;;;;;;;24.20;52.94;101514.31;4131834;28;20008;-65
2023/06/22 08:52:42;;;;;;;;;;;;;;;24.22;54.48;101514.91;4137876;28;20371;-65
2023/06/22 08:54:44;;;;;;;;;;;;;;;24.24;55.22;101511.91;4135440;28;20020;-65
2023/06/22 08:56:46;;;;;;;;;;;;;;;24.25;55.49;101508.88;4137766;28;20032;-65
2023/06/22 08:58:48;;;;;;;;;;;;;;;24.28;53.03;101518.59;4138037;28;20027;-63
2023/06/22 09:00:51;;;;;;;;;;;;;;;24.29;52.92;101517.50;4133288;28;20478;-64
2023/06/22 09:02:53;;;;;;;;;;;;;;;24.30;52.90;101513.66;4137857;28;20370;-65
2023/06/22 09:04:55;;;;;;;;;;;;;;;24.31;54.40;101509.81;4137925;28;20016;-65
2023/06/22 09:06:59;;;;;;;;;;;;;;;24.33;52.62;101512.34;4138277;28;20032;-64
2023/06/22 09:09:00;;;;;;;;;;;;;;;24.36;52.19;101504.38;4136639;28;20363;-65
2023/06/22 09:11:03;;;;;;;;;;;;;;;24.38;53.42;101506.88;4137892;28;20028;-65
2023/06/22 09:13:05;;;;;;;;;;;;;;;24.38;55.08;101502.19;4137088;28;20348;-65
2023/06/22 09:15:07;;;;;;;;;;;;;;;24.42;54.63;101494.22;4137519;28;20019;-65
2023/06/22 09:17:09;;;;;;;;;;;;;;;24.42;54.12;101492.31;4137917;28;20012;-65
2023/06/22 09:19:12;;;;;;;;;;;;;;;24.45;54.59;101496.50;4136874;28;20028;-64
2023/06/22 09:21:14;;;;;;;;;;;;;;;24.48;54.54;101493.22;4137359;28;20041;-66
2023/06/22 09:23:17;;;;;;;;;;;;;;;24.50;55.45;101493.84;4137071;28;20024;-66
2023/06/22 09:25:20;;;;;;;;;;;;;;;24.52;55.91;101493.59;4139616;28;20065;-66
2023/06/22 09:27:23;;;;;;;;;;;;;;;24.53;55.34;101492.47;4141649;28;20024;-65
2023/06/22 09:29:25;;;;;;;;;;;;;;;24.53;53.07;101493.31;4140927;28;20004;-66
2023/06/22 09:31:27;;;;;;;;;;;;;;;24.56;54.26;101497.50;4141008;28;20016;-65
2023/06/22 09:33:29;;;;;;;;;;;;;;;24.58;54.40;101493.44;4140590;28;20018;-64
2023/06/22 09:35:31;;;;;;;;;;;;;;;24.57;51.02;101490.91;4138917;28;20016;-64
2023/06/22 09:37:33;;;;;;;;;;;;;;;24.59;52.52;101491.50;4140752;28;20029;-65
2023/06/22 09:39:37;;;;;;;;;;;;;;;24.59;53.43;101492.34;4140337;28;20005;-64
2023/06/22 09:41:39;;;;;;;;;;;;;;;24.58;53.01;101490.66;4137302;28;20027;-64
2023/06/22 09:43:41;;;;;;;;;;;;;;;24.58;54.65;101487.91;4139932;28;20025;-65
2023/06/22 09:45:43;;;;;;;;;;;;;;;24.61;53.66;101492.09;4140228;28;20012;-64
2023/06/22 09:47:45;;;;;;;;;;;;;;;24.59;54.89;101481.31;4141166;28;20029;-64
2023/06/22 09:49:47;;;;;;;;;;;;;;;24.61;52.21;101484.63;4137977;28;20016;-65
2023/06/22 09:51:49;;;;;;;;;;;;;;;24.62;52.62;101478.03;4139544;28;20020;-64
2023/06/22 09:53:52;;;;;;;;;;;;;;;24.62;53.40;101475.28;4140816;28;20029;-64
2023/06/22 09:55:55;;;;;;;;;;;;;;;24.65;52.17;101476.66;4135972;28;20016;-64
2023/06/22 09:57:57;;;;;;;;;;;;;;;24.67;51.00;101477.28;4137786;28;20028;-65
2023/06/22 09:59:59;;;;;;;;;;;;;;;24.68;53.24;101473.41;4140665;28;20043;-64
2023/06/22 10:02:01;;;;;;;;;;;;;;;24.69;51.00;101477.84;4140602;28;20036;-64
2023/06/22 10:04:04;;;;;;;;;;;;;;;24.71;52.72;101470.13;4140147;28;20052;-64
2023/06/22 10:06:06;;;;;;;;;;;;;;;24.68;52.28;101467.88;4141003;28;20032;-64
2023/06/22 10:08:09;;;;;;;;;;;;;;;24.74;53.28;101472.38;4139975;28;20008;-64
2023/06/22 10:10:11;;;;;;;;;;;;;;;24.75;54.01;101476.84;4140086;28;20020;-64
2023/06/22 10:12:15;;;;;;;;;;;;;;;24.78;51.05;101479.09;4141319;28;20451;-64
2023/06/22 10:14:17;;;;;;;;;;;;;;;24.81;50.31;101477.72;4140932;28;20353;-64
2023/06/22 10:16:19;;;;;;;;;;;;;;;24.80;52.19;101471.38;4140803;28;20012;-64
2023/06/22 10:18:21;;;;;;;;;;;;;;;24.80;50.37;101476.91;4135043;28;20025;-63
2023/06/22 10:20:23;;;;;;;;;;;;;;;24.81;51.90;101473.06;4139893;28;20025;-65
2023/06/22 10:22:25;;;;;;;;;;;;;;;24.80;52.98;101474.13;4140181;28;20056;-65
2023/06/22 10:24:27;;;;;;;;;;;;;;;24.81;52.21;101470.28;4139964;28;20040;-65
2023/06/22 10:26:29;;;;;;;;;;;;;;;24.82;52.15;101474.72;4140583;28;20654;-65
2023/06/22 10:28:32;;;;;;;;;;;;;;;24.85;50.88;101476.13;4140157;28;20024;-66